createdAt,value
2023-05-11T00:01:47.446Z,1.20
2023-05-11T00:04:14.069Z,1.10
2023-05-11T00:06:40.955Z,1.20
2023-05-11T00:09:09.317Z,1.30
2023-05-11T00:11:36.267Z,1.35
2023-05-11T00:14:03.250Z,1.33
2023-05-11T00:16:29.838Z,1.25
2023-05-11T00:18:56.483Z,1.30
2023-05-11T00:21:23.051Z,1.20
2023-05-11T00:23:49.873Z,1.27
2023-05-11T00:26:16.511Z,1.08
2023-05-11T00:28:45.257Z,1.20
2023-05-11T00:31:11.828Z,1.20
2023-05-11T00:33:38.411Z,1.30
2023-05-11T00:36:05.229Z,1.42
2023-05-11T00:38:32.158Z,1.40
2023-05-11T00:40:58.717Z,1.20
2023-05-11T00:43:25.581Z,1.50
2023-05-11T00:45:53.392Z,1.20
2023-05-11T00:48:19.870Z,1.30
2023-05-11T00:50:46.561Z,1.10
2023-05-11T00:53:13.624Z,1.30
2023-05-11T00:55:40.395Z,1.10
2023-05-11T00:58:07.073Z,1.30
2023-05-11T01:00:33.762Z,1.00
2023-05-11T01:03:01.266Z,1.27
2023-05-11T01:05:34.103Z,1.20
2023-05-11T01:08:06.232Z,1.27
2023-05-11T01:10:42.177Z,1.20
2023-05-11T01:13:32.260Z,1.30
2023-05-11T01:15:59.369Z,1.48
2023-05-11T01:18:31.284Z,1.20
2023-05-11T01:21:03.193Z,1.42
2023-05-11T01:23:41.029Z,1.40
2023-05-11T01:26:17.273Z,1.17
2023-05-11T01:29:06.160Z,1.25
2023-05-11T01:31:34.201Z,1.25
2023-05-11T01:34:04.083Z,1.10
2023-05-11T01:36:35.293Z,1.25
2023-05-11T01:39:04.704Z,1.48
2023-05-11T01:41:33.786Z,1.20
2023-05-11T01:44:03.719Z,1.10
2023-05-11T01:46:33.227Z,1.48
2023-05-11T01:51:28.298Z,1.13
2023-05-11T01:53:55.511Z,1.35
2023-05-11T01:56:22.858Z,1.48
2023-05-11T01:58:50.014Z,1.27
2023-05-11T02:01:18.017Z,1.40
2023-05-11T02:03:46.385Z,1.30
2023-05-11T02:06:14.492Z,1.20
2023-05-11T02:08:42.030Z,1.40
2023-05-11T02:11:10.398Z,1.38
2023-05-11T02:13:40.853Z,1.20
2023-05-11T02:16:08.667Z,1.40
2023-05-11T02:18:35.806Z,1.23
2023-05-11T02:21:03.264Z,1.52
2023-05-11T02:23:31.332Z,1.40
2023-05-11T02:25:58.251Z,1.30
2023-05-11T02:28:25.130Z,1.20
2023-05-11T02:30:54.552Z,1.10
2023-05-11T02:33:27.849Z,1.33
2023-05-11T02:35:56.425Z,1.40
2023-05-11T02:38:32.738Z,1.58
2023-05-11T02:41:04.340Z,1.25
2023-05-11T02:43:35.450Z,1.33
2023-05-11T02:46:06.452Z,1.27
2023-05-11T02:48:39.998Z,1.20
2023-05-11T02:51:08.803Z,1.20
2023-05-11T02:53:41.756Z,1.23
2023-05-11T02:56:08.912Z,1.30
2023-05-11T02:58:35.941Z,1.30
2023-05-11T03:01:31.851Z,1.20
2023-05-11T03:03:58.484Z,1.20
2023-05-11T03:06:27.157Z,1.67
2023-05-11T03:08:53.755Z,1.60
2023-05-11T03:11:21.298Z,1.67
2023-05-11T03:13:48.269Z,1.50
2023-05-11T03:16:17.461Z,1.42
2023-05-11T03:18:45.994Z,1.35
2023-05-11T03:21:12.859Z,1.20
2023-05-11T03:23:40.095Z,1.45
2023-05-11T03:26:06.806Z,1.40
2023-05-11T03:28:35.765Z,1.58
2023-05-11T03:31:06.506Z,1.40
2023-05-11T03:33:33.445Z,1.40
2023-05-11T03:36:01.630Z,1.38
2023-05-11T03:38:30.739Z,1.15
2023-05-11T03:40:58.641Z,1.33
2023-05-11T03:43:28.477Z,1.40
2023-05-11T03:45:57.190Z,1.42
2023-05-11T03:48:25.894Z,1.52
2023-05-11T03:50:52.538Z,1.40
2023-05-11T03:53:19.472Z,1.40
2023-05-11T03:55:46.260Z,1.40
2023-05-11T03:58:12.857Z,1.38
2023-05-11T04:00:40.829Z,1.30
2023-05-11T04:03:09.057Z,1.40
2023-05-11T04:05:35.735Z,1.30
2023-05-11T04:08:05.416Z,1.60
2023-05-11T04:10:32.026Z,1.48
2023-05-11T04:12:58.811Z,1.75
2023-05-11T04:15:25.638Z,1.70
2023-05-11T04:17:52.160Z,1.40
2023-05-11T04:20:18.859Z,1.80
2023-05-11T04:22:45.710Z,1.60
2023-05-11T04:25:13.587Z,1.63
2023-05-11T04:27:40.316Z,1.50
2023-05-11T04:30:08.172Z,1.70
2023-05-11T04:32:34.821Z,1.50
2023-05-11T04:35:01.978Z,1.60
2023-05-11T04:37:32.421Z,1.55
2023-05-11T04:40:00.807Z,1.80
2023-05-11T04:42:27.467Z,1.70
2023-05-11T04:44:56.276Z,1.70
2023-05-11T04:47:22.854Z,1.70
2023-05-11T04:49:50.842Z,1.70
2023-05-11T04:52:17.590Z,1.70
2023-05-11T04:54:48.448Z,1.48
2023-05-11T04:57:16.125Z,1.58
2023-05-11T04:59:42.784Z,1.85
2023-05-11T05:02:10.838Z,1.75
2023-05-11T05:04:37.352Z,1.75
2023-05-11T05:07:24.117Z,1.60
2023-05-11T05:09:50.895Z,1.67
2023-05-11T05:12:18.618Z,1.50
2023-05-11T05:14:45.335Z,1.63
2023-05-11T05:17:11.958Z,1.92
2023-05-11T05:19:39.988Z,2.25
2023-05-11T05:22:06.717Z,1.50
2023-05-11T05:24:33.609Z,1.65
2023-05-11T05:27:00.987Z,1.83
2023-05-11T05:29:27.541Z,1.80
2023-05-11T05:31:54.866Z,2.00
2023-05-11T05:36:50.807Z,2.10
2023-05-11T05:39:17.420Z,1.90
2023-05-11T05:41:44.250Z,2.10
2023-05-11T05:44:11.073Z,2.78
2023-05-11T05:46:38.703Z,2.00
2023-05-11T05:49:05.818Z,2.00
2023-05-11T05:51:32.766Z,2.45
2023-05-11T05:53:59.383Z,1.95
2023-05-11T05:56:26.777Z,2.28
2023-05-11T05:58:53.322Z,2.70
2023-05-11T06:01:20.087Z,2.70
2023-05-11T06:03:46.791Z,2.53
2023-05-11T06:06:13.466Z,3.03
2023-05-11T06:08:40.057Z,3.10
2023-05-11T06:11:06.600Z,3.33
2023-05-11T06:13:33.271Z,3.10
2023-05-11T06:15:59.985Z,3.45
2023-05-11T06:18:31.972Z,3.53
2023-05-11T06:20:59.705Z,3.67
2023-05-11T06:23:28.120Z,3.50
2023-05-11T06:25:54.913Z,4.10
2023-05-11T06:28:24.366Z,4.07
2023-05-11T06:30:58.171Z,3.58
2023-05-11T06:33:26.455Z,4.15
2023-05-11T06:35:54.582Z,4.50
2023-05-11T06:38:21.638Z,4.60
2023-05-11T06:40:52.648Z,4.60
2023-05-11T06:43:19.125Z,4.43
2023-05-11T06:45:48.486Z,4.80
2023-05-11T06:48:15.485Z,4.60
2023-05-11T06:51:02.310Z,4.60
2023-05-11T06:53:28.847Z,5.10
2023-05-11T06:55:57.825Z,4.80
2023-05-11T06:58:24.417Z,5.95
2023-05-11T07:00:50.944Z,5.90
2023-05-11T07:03:17.870Z,5.72
2023-05-11T07:05:44.508Z,6.60
2023-05-11T07:08:11.132Z,6.57
2023-05-11T07:10:37.705Z,6.63
2023-05-11T07:13:04.480Z,6.65
2023-05-11T07:15:31.236Z,6.22
2023-05-11T07:17:57.902Z,6.25
2023-05-11T07:20:24.612Z,6.00
2023-05-11T07:22:51.130Z,6.05
2023-05-11T07:25:17.646Z,5.75
2023-05-11T07:27:44.508Z,5.60
2023-05-11T07:30:11.634Z,5.75
2023-05-11T07:32:38.772Z,5.60
2023-05-11T07:35:05.707Z,5.90
2023-05-11T07:37:32.559Z,5.80
2023-05-11T07:39:59.351Z,5.68
2023-05-11T07:42:25.925Z,6.25
2023-05-11T07:44:52.417Z,5.40
2023-05-11T07:47:20.952Z,5.40
2023-05-11T07:49:47.787Z,4.90
2023-05-11T07:52:14.701Z,6.28
2023-05-11T07:54:41.328Z,5.68
2023-05-11T07:57:07.994Z,5.78
2023-05-11T07:59:34.822Z,5.90
2023-05-11T08:02:01.378Z,5.28
2023-05-11T08:04:28.216Z,5.80
2023-05-11T08:06:54.858Z,5.53
2023-05-11T08:09:22.266Z,5.60
2023-05-11T08:11:49.702Z,5.63
2023-05-11T08:14:17.104Z,5.35
2023-05-11T08:16:43.792Z,5.28
2023-05-11T08:19:11.713Z,4.75
2023-05-11T08:21:38.681Z,5.00
2023-05-11T08:24:05.554Z,4.60
2023-05-11T08:26:33.202Z,4.70
2023-05-11T08:28:59.814Z,5.30
2023-05-11T08:31:26.366Z,4.90
2023-05-11T08:33:53.455Z,4.80
2023-05-11T08:36:20.002Z,4.32
2023-05-11T08:38:46.624Z,4.05
2023-05-11T08:41:13.260Z,4.13
2023-05-11T08:43:40.495Z,4.65
2023-05-11T08:46:08.687Z,5.10
2023-05-11T08:48:35.581Z,4.47
2023-05-11T08:51:04.242Z,4.93
2023-05-11T08:53:31.134Z,4.65
2023-05-11T08:55:59.009Z,4.50
2023-05-11T08:58:27.370Z,5.03
2023-05-11T09:00:54.377Z,4.70
2023-05-11T09:03:22.346Z,4.90
2023-05-11T09:05:49.741Z,4.85
2023-05-11T09:08:18.293Z,5.00
2023-05-11T09:10:45.130Z,5.50
2023-05-11T09:13:12.264Z,4.78
2023-05-11T09:15:39.033Z,4.82
2023-05-11T09:18:05.964Z,5.03
2023-05-11T09:20:33.774Z,4.80
2023-05-11T09:23:00.862Z,4.93
2023-05-11T09:25:30.692Z,4.70
2023-05-11T09:27:59.415Z,5.43
2023-05-11T09:30:26.493Z,5.65
2023-05-11T09:32:57.887Z,5.00
2023-05-11T09:35:29.764Z,4.47
2023-05-11T09:38:17.075Z,4.45
2023-05-11T09:40:52.305Z,4.82
2023-05-11T09:43:24.624Z,4.20
2023-05-11T09:45:53.801Z,4.50
2023-05-11T09:48:20.669Z,4.57
2023-05-11T09:50:52.378Z,4.40
2023-05-11T09:53:18.932Z,4.60
2023-05-11T09:55:55.806Z,4.28
2023-05-11T09:58:22.294Z,3.88
2023-05-11T10:00:53.567Z,4.05
2023-05-11T10:03:20.927Z,4.07
2023-05-11T10:06:01.046Z,4.18
2023-05-11T10:08:34.362Z,4.57
2023-05-11T10:11:02.828Z,3.90
2023-05-11T10:13:31.364Z,3.97
2023-05-11T10:15:59.487Z,3.70
2023-05-11T10:18:26.584Z,4.15
2023-05-11T10:20:53.659Z,4.00
2023-05-11T10:23:20.704Z,3.92
2023-05-11T10:25:48.116Z,3.70
2023-05-11T10:28:15.185Z,3.88
2023-05-11T10:30:41.821Z,3.90
2023-05-11T10:33:08.578Z,4.07
2023-05-11T10:35:37.743Z,3.88
2023-05-11T10:38:07.513Z,3.60
2023-05-11T10:40:40.048Z,3.78
2023-05-11T10:43:29.505Z,3.85
2023-05-11T10:46:06.040Z,3.30
2023-05-11T10:48:53.141Z,3.95
2023-05-11T10:51:52.788Z,3.75
2023-05-11T10:54:56.934Z,3.65
2023-05-11T10:57:47.759Z,3.90
2023-05-11T11:00:50.334Z,4.00
2023-05-11T11:03:16.995Z,4.13
2023-05-11T11:05:45.068Z,3.90
2023-05-11T11:08:11.704Z,3.85
2023-05-11T11:10:40.625Z,4.00
2023-05-11T11:13:09.430Z,3.85
2023-05-11T11:15:54.373Z,3.90
2023-05-11T11:18:26.313Z,3.60
2023-05-11T11:20:57.656Z,3.80
2023-05-11T11:23:43.810Z,4.10
2023-05-11T11:26:17.126Z,3.58
2023-05-11T11:29:01.946Z,3.78
2023-05-11T11:31:30.546Z,3.83
2023-05-11T11:34:01.716Z,3.78
2023-05-11T11:36:58.480Z,3.50
2023-05-11T11:39:26.787Z,3.60
2023-05-11T11:42:07.181Z,3.00
2023-05-11T11:44:34.230Z,2.92
2023-05-11T11:47:17.695Z,3.42
2023-05-11T11:49:48.417Z,4.07
2023-05-11T11:52:33.461Z,3.70
2023-05-11T11:55:03.880Z,3.75
2023-05-11T11:57:33.265Z,4.47
2023-05-11T12:00:00.729Z,3.70
2023-05-11T12:02:28.116Z,3.45
2023-05-11T12:05:01.425Z,3.75
2023-05-11T12:07:33.068Z,3.70
2023-05-11T12:10:04.129Z,3.08
2023-05-11T12:12:31.107Z,2.80
2023-05-11T12:14:59.942Z,2.78
2023-05-11T12:17:29.784Z,3.40
2023-05-11T12:20:13.187Z,3.10
2023-05-11T12:22:39.967Z,2.90
2023-05-11T12:25:07.979Z,2.97
2023-05-11T12:27:34.616Z,2.97
2023-05-11T12:30:01.305Z,3.10
2023-05-11T12:32:31.847Z,2.80
2023-05-11T12:35:00.194Z,2.97
2023-05-11T12:37:26.916Z,2.63
2023-05-11T12:39:57.275Z,2.70
2023-05-11T12:42:24.262Z,2.97
2023-05-11T12:44:51.410Z,3.50
2023-05-11T12:47:18.064Z,3.30
2023-05-11T12:49:45.715Z,3.13
2023-05-11T12:52:13.642Z,3.20
2023-05-11T12:54:41.809Z,3.03
2023-05-11T12:57:27.801Z,3.10
2023-05-11T13:00:15.530Z,2.80
2023-05-11T13:02:53.619Z,2.65
2023-05-11T13:05:25.512Z,2.50
2023-05-11T13:08:22.635Z,2.55
2023-05-11T13:10:49.147Z,2.38
2023-05-11T13:13:29.167Z,2.45
2023-05-11T13:15:55.897Z,2.40
2023-05-11T13:18:23.159Z,2.20
2023-05-11T13:21:05.150Z,2.35
2023-05-11T13:23:31.764Z,2.50
2023-05-11T13:25:58.282Z,2.30
2023-05-11T13:28:25.152Z,2.13
2023-05-11T13:30:59.029Z,2.50
2023-05-11T13:33:25.681Z,2.42
2023-05-11T13:35:52.199Z,2.50
2023-05-11T13:38:18.794Z,2.53
2023-05-11T13:40:45.793Z,2.30
2023-05-11T13:43:12.367Z,3.00
2023-05-11T13:45:41.130Z,2.60
2023-05-11T13:48:07.755Z,2.65
2023-05-11T13:50:34.617Z,2.42
2023-05-11T13:53:01.542Z,2.55
2023-05-11T13:55:28.676Z,2.70
2023-05-11T13:57:56.568Z,3.00
2023-05-11T14:00:23.345Z,2.65
2023-05-11T14:02:50.671Z,2.90
2023-05-11T14:05:17.842Z,2.67
2023-05-11T14:07:48.379Z,2.58
2023-05-11T14:10:16.688Z,2.92
2023-05-11T14:12:43.295Z,2.80
2023-05-11T14:15:10.365Z,3.10
2023-05-11T14:17:37.065Z,2.80
2023-05-11T14:20:04.476Z,2.60
2023-05-11T14:22:31.201Z,2.60
2023-05-11T14:24:57.750Z,2.45
2023-05-11T14:27:24.404Z,2.40
2023-05-11T14:29:52.270Z,2.60
2023-05-11T14:32:19.571Z,2.40
2023-05-11T14:34:47.682Z,2.17
2023-05-11T14:37:14.233Z,2.42
2023-05-11T14:39:41.378Z,2.20
2023-05-11T14:42:08.424Z,2.40
2023-05-11T14:44:35.027Z,2.20
2023-05-11T14:47:01.726Z,2.65
2023-05-11T14:49:28.797Z,2.30
2023-05-11T14:51:56.566Z,2.75
2023-05-11T14:54:23.349Z,2.38
2023-05-11T14:56:53.938Z,2.60
2023-05-11T14:59:21.762Z,2.53
2023-05-11T15:01:49.594Z,2.30
2023-05-11T15:04:16.851Z,2.10
2023-05-11T15:06:43.688Z,2.20
2023-05-11T15:09:10.326Z,2.10
2023-05-11T15:11:39.830Z,2.08
2023-05-11T15:14:07.066Z,2.25
2023-05-11T15:16:33.712Z,2.22
2023-05-11T15:19:00.653Z,2.40
2023-05-11T15:21:27.681Z,2.10
2023-05-11T15:23:54.463Z,1.98
2023-05-11T15:26:22.316Z,2.00
2023-05-11T15:28:49.176Z,2.25
2023-05-11T15:31:15.980Z,1.98
2023-05-11T15:33:44.140Z,1.88
2023-05-11T15:36:19.674Z,2.63
2023-05-11T15:38:48.346Z,2.75
2023-05-11T15:41:16.636Z,2.70
2023-05-11T15:43:44.069Z,2.10
2023-05-11T15:46:11.388Z,1.98
2023-05-11T15:48:38.903Z,1.95
2023-05-11T15:51:05.876Z,2.20
2023-05-11T15:53:32.919Z,2.00
2023-05-11T15:56:00.810Z,2.60
2023-05-11T15:58:29.402Z,2.40
2023-05-11T16:00:58.638Z,2.20
2023-05-11T16:03:26.125Z,2.38
2023-05-11T16:05:53.513Z,2.50
2023-05-11T16:08:20.448Z,2.33
2023-05-11T16:10:48.122Z,2.70
2023-05-11T16:13:15.590Z,2.40
2023-05-11T16:15:42.934Z,2.33
2023-05-11T16:18:10.757Z,2.60
2023-05-11T16:20:38.917Z,2.45
2023-05-11T16:23:06.316Z,2.33
2023-05-11T16:25:34.209Z,1.80
2023-05-11T16:28:07.145Z,1.60
2023-05-11T16:30:35.965Z,1.95
2023-05-11T16:33:05.939Z,2.60
2023-05-11T16:35:37.211Z,2.67
2023-05-11T16:38:09.623Z,3.00
2023-05-11T16:40:36.826Z,3.13
2023-05-11T16:43:03.404Z,3.05
2023-05-11T16:45:29.893Z,3.15
2023-05-11T16:47:56.827Z,2.80
2023-05-11T16:50:23.594Z,2.80
2023-05-11T16:52:50.096Z,2.60
2023-05-11T16:55:16.688Z,2.40
2023-05-11T16:57:44.494Z,2.40
2023-05-11T17:00:12.028Z,3.33
2023-05-11T17:02:38.718Z,2.85
2023-05-11T17:05:06.604Z,4.32
2023-05-11T17:07:34.010Z,4.93
2023-05-11T17:10:00.748Z,3.30
2023-05-11T17:12:28.833Z,4.40
2023-05-11T17:14:55.553Z,3.50
2023-05-11T17:17:22.199Z,3.83
2023-05-11T17:19:48.870Z,3.97
2023-05-11T17:22:15.458Z,3.83
2023-05-11T17:24:42.548Z,3.60
2023-05-11T17:27:09.189Z,3.97
2023-05-11T17:29:35.946Z,3.55
2023-05-11T17:32:03.432Z,4.25
2023-05-11T17:34:30.530Z,3.80
2023-05-11T17:36:57.265Z,3.75
2023-05-11T17:39:23.850Z,4.30
2023-05-11T17:41:50.429Z,4.10
2023-05-11T17:44:17.273Z,4.80
2023-05-11T17:46:43.915Z,4.78
2023-05-11T17:49:10.484Z,5.55
2023-05-11T17:51:37.317Z,5.55
2023-05-11T17:54:03.997Z,5.90
2023-05-11T17:56:31.446Z,5.18
2023-05-11T17:58:58.157Z,5.10
2023-05-11T18:01:25.241Z,4.35
2023-05-11T18:03:51.954Z,4.30
2023-05-11T18:06:18.713Z,4.10
2023-05-11T18:08:45.491Z,4.60
2023-05-11T18:11:12.884Z,4.88
2023-05-11T18:13:39.717Z,3.95
2023-05-11T18:16:07.130Z,4.78
2023-05-11T18:18:34.338Z,3.88
2023-05-11T18:21:07.556Z,3.80
2023-05-11T18:23:34.523Z,3.80
2023-05-11T18:26:01.187Z,3.92
2023-05-11T18:28:27.825Z,3.58
2023-05-11T18:30:54.438Z,4.20
2023-05-11T18:33:21.408Z,3.78
2023-05-11T18:35:48.377Z,3.88
2023-05-11T18:38:17.132Z,4.07
2023-05-11T18:40:44.804Z,3.90
2023-05-11T18:43:11.632Z,3.65
2023-05-11T18:45:40.926Z,3.97
2023-05-11T18:50:34.169Z,4.13
2023-05-11T18:53:02.092Z,4.00
2023-05-11T18:55:30.974Z,3.58
2023-05-11T18:57:58.144Z,3.92
2023-05-11T19:00:24.863Z,4.32
2023-05-11T19:02:51.996Z,4.40
2023-05-11T19:05:19.325Z,4.20
2023-05-11T19:07:46.127Z,4.20
2023-05-11T19:10:12.808Z,4.60
2023-05-11T19:12:39.594Z,5.68
2023-05-11T19:15:06.903Z,4.57
2023-05-11T19:17:33.534Z,4.93
2023-05-11T19:20:00.209Z,5.72
2023-05-11T19:22:27.030Z,6.68
2023-05-11T19:24:53.667Z,5.47
2023-05-11T19:27:20.349Z,5.30
2023-05-11T19:29:49.508Z,4.22
2023-05-11T19:32:16.296Z,4.50
2023-05-11T19:34:42.871Z,5.13
2023-05-11T19:37:09.585Z,4.45
2023-05-11T19:39:36.372Z,5.15
2023-05-11T19:42:02.978Z,5.07
2023-05-11T19:44:32.966Z,5.13
2023-05-11T19:47:19.985Z,5.28
2023-05-11T19:49:46.743Z,5.10
2023-05-11T19:52:13.740Z,5.50
2023-05-11T19:54:40.385Z,6.82
2023-05-11T19:57:07.035Z,11.35
2023-05-11T19:59:33.807Z,8.05
2023-05-11T20:02:02.061Z,7.30
2023-05-11T20:04:29.351Z,7.43
2023-05-11T20:06:57.233Z,8.63
2023-05-11T20:09:27.128Z,8.90
2023-05-11T20:11:53.881Z,8.20
2023-05-11T20:14:20.418Z,6.05
2023-05-11T20:16:47.038Z,7.55
2023-05-11T20:19:13.821Z,7.88
2023-05-11T20:21:40.708Z,7.55
2023-05-11T20:24:07.457Z,8.88
2023-05-11T20:26:34.060Z,8.63
2023-05-11T20:29:00.638Z,9.07
2023-05-11T20:31:27.242Z,9.30
2023-05-11T20:36:23.413Z,7.35
2023-05-11T20:38:52.783Z,7.53
2023-05-11T20:43:45.908Z,8.65
2023-05-11T20:46:12.590Z,7.43
2023-05-11T20:48:41.070Z,7.95
2023-05-11T20:51:08.458Z,7.50
2023-05-11T20:53:35.251Z,7.85
2023-05-11T20:56:03.156Z,8.27
2023-05-11T20:58:30.969Z,7.43
2023-05-11T21:01:15.842Z,7.13
2023-05-11T21:03:48.418Z,6.90
2023-05-11T21:06:15.859Z,7.32
2023-05-11T21:08:42.552Z,8.13
2023-05-11T21:11:09.803Z,8.52
2023-05-11T21:13:36.528Z,8.80
2023-05-11T21:16:04.143Z,8.75
2023-05-11T21:18:34.666Z,7.60
2023-05-11T21:21:02.015Z,7.93
2023-05-11T21:23:29.252Z,6.90
2023-05-11T21:25:57.277Z,7.30
2023-05-11T21:28:27.714Z,7.43
2023-05-11T21:30:54.524Z,6.80
2023-05-11T21:33:21.559Z,7.22
2023-05-11T21:35:48.604Z,7.95
2023-05-11T21:38:17.311Z,7.50
2023-05-11T21:40:44.850Z,7.95
2023-05-11T21:43:13.820Z,8.48
2023-05-11T21:45:41.099Z,7.90
2023-05-11T21:48:07.749Z,8.38
2023-05-11T21:50:34.316Z,8.10
2023-05-11T21:53:01.154Z,7.95
2023-05-11T21:55:27.692Z,8.18
2023-05-11T21:57:54.258Z,8.02
2023-05-11T22:00:22.482Z,8.35
2023-05-11T22:02:50.155Z,8.18
2023-05-11T22:05:17.194Z,8.32
2023-05-11T22:07:43.907Z,7.78
2023-05-11T22:10:13.653Z,7.80
2023-05-11T22:12:40.259Z,7.75
2023-05-11T22:15:08.477Z,8.15
2023-05-11T22:17:36.410Z,7.88
2023-05-11T22:20:06.349Z,8.75
2023-05-11T22:22:33.438Z,8.18
2023-05-11T22:25:00.020Z,7.80
2023-05-11T22:27:26.889Z,8.50
2023-05-11T22:29:53.535Z,8.93
2023-05-11T22:32:20.091Z,8.20
2023-05-11T22:34:46.683Z,7.90
2023-05-11T22:37:13.217Z,8.00
2023-05-11T22:39:39.762Z,7.55
2023-05-11T22:42:06.517Z,7.80
2023-05-11T22:44:33.054Z,7.30
2023-05-11T22:46:59.815Z,9.13
2023-05-11T22:49:26.954Z,8.77
2023-05-11T22:51:53.872Z,8.85
2023-05-11T22:54:21.250Z,9.63
2023-05-11T22:56:47.817Z,9.05
2023-05-11T22:59:14.356Z,10.05
2023-05-11T23:01:40.946Z,9.75
2023-05-11T23:04:07.524Z,9.30
2023-05-11T23:06:34.093Z,9.13
2023-05-11T23:09:00.679Z,9.18
2023-05-11T23:11:27.199Z,9.75
2023-05-11T23:13:53.696Z,9.57
2023-05-11T23:16:20.341Z,9.18
2023-05-11T23:18:47.176Z,9.60
2023-05-11T23:21:13.923Z,9.48
2023-05-11T23:23:42.640Z,9.23
2023-05-11T23:26:09.972Z,9.40
2023-05-11T23:28:36.518Z,10.13
2023-05-11T23:31:03.059Z,10.45
2023-05-11T23:33:29.530Z,9.98
2023-05-11T23:35:56.447Z,10.15
2023-05-11T23:38:23.389Z,9.63
2023-05-11T23:40:49.869Z,10.52
2023-05-11T23:43:16.440Z,9.77
2023-05-11T23:45:42.955Z,10.18
2023-05-11T23:48:09.626Z,10.88
2023-05-11T23:50:36.214Z,11.07
2023-05-11T23:53:02.756Z,10.98
2023-05-11T23:55:29.377Z,9.88
2023-05-11T23:57:58.747Z,10.77
